sensor_id;sensor_type;location;lat;lon;timestamp;P1;durP1;ratioP1;P2;durP2;ratioP2
68457;SDS011;65384;52.016;5.428;2023-03-14T00:01:23;14.63;;;2.20;;
68457;SDS011;65384;52.016;5.428;2023-03-14T00:03:48;8.98;;;2.20;;
68457;SDS011;65384;52.016;5.428;2023-03-14T00:06:14;9.65;;;2.03;;
68457;SDS011;65384;52.016;5.428;2023-03-14T00:08:40;13.15;;;2.40;;
68457;SDS011;65384;52.016;5.428;2023-03-14T00:11:07;11.52;;;2.25;;
68457;SDS011;65384;52.016;5.428;2023-03-14T00:13:34;9.15;;;2.35;;
68457;SDS011;65384;52.016;5.428;2023-03-14T00:16:03;12.25;;;2.50;;
68457;SDS011;65384;52.016;5.428;2023-03-14T00:18:33;5.47;;;1.73;;
68457;SDS011;65384;52.016;5.428;2023-03-14T00:20:59;9.95;;;1.73;;
68457;SDS011;65384;52.016;5.428;2023-03-14T00:23:26;9.50;;;1.98;;
68457;SDS011;65384;52.016;5.428;2023-03-14T00:25:53;9.32;;;1.70;;
68457;SDS011;65384;52.016;5.428;2023-03-14T00:28:18;10.40;;;1.90;;
68457;SDS011;65384;52.016;5.428;2023-03-14T00:30:43;13.50;;;2.13;;
68457;SDS011;65384;52.016;5.428;2023-03-14T00:33:09;13.88;;;1.98;;
68457;SDS011;65384;52.016;5.428;2023-03-14T00:35:34;7.38;;;1.65;;
68457;SDS011;65384;52.016;5.428;2023-03-14T00:37:59;8.38;;;1.50;;
68457;SDS011;65384;52.016;5.428;2023-03-14T00:40:25;12.70;;;2.00;;
68457;SDS011;65384;52.016;5.428;2023-03-14T00:42:50;9.55;;;1.60;;
68457;SDS011;65384;52.016;5.428;2023-03-14T00:45:15;10.90;;;1.85;;
68457;SDS011;65384;52.016;5.428;2023-03-14T00:47:41;6.95;;;1.60;;
68457;SDS011;65384;52.016;5.428;2023-03-14T00:50:10;8.68;;;1.50;;
68457;SDS011;65384;52.016;5.428;2023-03-14T00:52:36;10.65;;;1.25;;
68457;SDS011;65384;52.016;5.428;2023-03-14T00:55:02;10.75;;;1.55;;
68457;SDS011;65384;52.016;5.428;2023-03-14T00:57:27;7.60;;;1.40;;
68457;SDS011;65384;52.016;5.428;2023-03-14T00:59:52;6.82;;;1.23;;
68457;SDS011;65384;52.016;5.428;2023-03-14T01:02:18;3.10;;;1.00;;
68457;SDS011;65384;52.016;5.428;2023-03-14T01:04:43;7.13;;;1.40;;
68457;SDS011;65384;52.016;5.428;2023-03-14T01:07:08;8.30;;;1.27;;
68457;SDS011;65384;52.016;5.428;2023-03-14T01:09:34;9.60;;;1.42;;
68457;SDS011;65384;52.016;5.428;2023-03-14T01:11:59;10.38;;;1.33;;
68457;SDS011;65384;52.016;5.428;2023-03-14T01:14:24;8.25;;;1.13;;
68457;SDS011;65384;52.016;5.428;2023-03-14T01:16:50;4.95;;;1.02;;
68457;SDS011;65384;52.016;5.428;2023-03-14T01:19:15;11.68;;;1.42;;
68457;SDS011;65384;52.016;5.428;2023-03-14T01:21:40;6.40;;;1.02;;
68457;SDS011;65384;52.016;5.428;2023-03-14T01:24:06;6.68;;;1.13;;
68457;SDS011;65384;52.016;5.428;2023-03-14T01:26:32;5.72;;;1.23;;
68457;SDS011;65384;52.016;5.428;2023-03-14T01:28:59;8.90;;;1.30;;
68457;SDS011;65384;52.016;5.428;2023-03-14T01:31:25;7.15;;;1.35;;
68457;SDS011;65384;52.016;5.428;2023-03-14T01:33:51;8.45;;;1.20;;
68457;SDS011;65384;52.016;5.428;2023-03-14T01:36:17;5.43;;;1.20;;
68457;SDS011;65384;52.016;5.428;2023-03-14T01:38:43;9.85;;;1.13;;
68457;SDS011;65384;52.016;5.428;2023-03-14T01:41:12;5.75;;;1.10;;
68457;SDS011;65384;52.016;5.428;2023-03-14T01:43:39;5.22;;;0.90;;
68457;SDS011;65384;52.016;5.428;2023-03-14T01:51:30;7.43;;;0.90;;
68457;SDS011;65384;52.016;5.428;2023-03-14T01:54:02;5.07;;;0.90;;
68457;SDS011;65384;52.016;5.428;2023-03-14T01:56:31;6.30;;;1.30;;
68457;SDS011;65384;52.016;5.428;2023-03-14T01:58:57;5.38;;;1.25;;
68457;SDS011;65384;52.016;5.428;2023-03-14T02:01:23;8.73;;;1.10;;
68457;SDS011;65384;52.016;5.428;2023-03-14T02:03:51;5.05;;;0.90;;
68457;SDS011;65384;52.016;5.428;2023-03-14T02:06:19;5.43;;;1.23;;
68457;SDS011;65384;52.016;5.428;2023-03-14T02:08:47;5.20;;;1.30;;
68457;SDS011;65384;52.016;5.428;2023-03-14T02:11:14;8.98;;;1.35;;
68457;SDS011;65384;52.016;5.428;2023-03-14T02:13:40;4.72;;;1.40;;
68457;SDS011;65384;52.016;5.428;2023-03-14T02:16:05;8.15;;;1.80;;
68457;SDS011;65384;52.016;5.428;2023-03-14T02:18:31;6.85;;;1.70;;
68457;SDS011;65384;52.016;5.428;2023-03-14T02:21:14;9.18;;;1.65;;
68457;SDS011;65384;52.016;5.428;2023-03-14T02:23:47;6.60;;;1.63;;
68457;SDS011;65384;52.016;5.428;2023-03-14T02:26:15;4.65;;;2.20;;
68457;SDS011;65384;52.016;5.428;2023-03-14T02:29:02;10.27;;;2.20;;
68457;SDS011;65384;52.016;5.428;2023-03-14T02:31:28;14.95;;;2.53;;
68457;SDS011;65384;52.016;5.428;2023-03-14T02:33:53;8.98;;;2.50;;
68457;SDS011;65384;52.016;5.428;2023-03-14T02:36:19;6.65;;;2.25;;
68457;SDS011;65384;52.016;5.428;2023-03-14T02:38:47;8.23;;;2.10;;
68457;SDS011;65384;52.016;5.428;2023-03-14T02:41:15;6.43;;;1.98;;
68457;SDS011;65384;52.016;5.428;2023-03-14T02:43:41;8.00;;;2.17;;
68457;SDS011;65384;52.016;5.428;2023-03-14T02:46:07;10.25;;;1.98;;
68457;SDS011;65384;52.016;5.428;2023-03-14T02:48:36;7.78;;;2.22;;
68457;SDS011;65384;52.016;5.428;2023-03-14T02:51:05;10.35;;;2.30;;
68457;SDS011;65384;52.016;5.428;2023-03-14T02:53:32;11.25;;;2.40;;
68457;SDS011;65384;52.016;5.428;2023-03-14T02:55:59;7.40;;;2.05;;
68457;SDS011;65384;52.016;5.428;2023-03-14T02:58:24;8.38;;;1.98;;
68457;SDS011;65384;52.016;5.428;2023-03-14T03:00:50;9.65;;;2.25;;
68457;SDS011;65384;52.016;5.428;2023-03-14T03:03:15;6.65;;;1.90;;
68457;SDS011;65384;52.016;5.428;2023-03-14T03:05:41;9.90;;;2.03;;
68457;SDS011;65384;52.016;5.428;2023-03-14T03:08:07;7.20;;;1.63;;
68457;SDS011;65384;52.016;5.428;2023-03-14T03:10:33;7.15;;;1.88;;
68457;SDS011;65384;52.016;5.428;2023-03-14T03:12:58;10.88;;;2.25;;
68457;SDS011;65384;52.016;5.428;2023-03-14T03:15:24;10.38;;;2.70;;
68457;SDS011;65384;52.016;5.428;2023-03-14T03:17:50;4.85;;;1.77;;
68457;SDS011;65384;52.016;5.428;2023-03-14T03:20:15;8.52;;;3.00;;
68457;SDS011;65384;52.016;5.428;2023-03-14T03:22:41;12.38;;;2.00;;
68457;SDS011;65384;52.016;5.428;2023-03-14T03:25:07;7.50;;;2.00;;
68457;SDS011;65384;52.016;5.428;2023-03-14T03:27:33;8.63;;;1.92;;
68457;SDS011;65384;52.016;5.428;2023-03-14T03:30:00;8.77;;;2.60;;
68457;SDS011;65384;52.016;5.428;2023-03-14T03:32:26;9.27;;;2.35;;
68457;SDS011;65384;52.016;5.428;2023-03-14T03:34:51;13.63;;;2.10;;
68457;SDS011;65384;52.016;5.428;2023-03-14T03:37:17;10.48;;;2.10;;
68457;SDS011;65384;52.016;5.428;2023-03-14T03:39:42;10.43;;;2.10;;
68457;SDS011;65384;52.016;5.428;2023-03-14T03:42:08;11.85;;;1.77;;
68457;SDS011;65384;52.016;5.428;2023-03-14T03:44:34;8.05;;;2.10;;
68457;SDS011;65384;52.016;5.428;2023-03-14T03:46:59;8.77;;;2.08;;
68457;SDS011;65384;52.016;5.428;2023-03-14T03:49:28;9.63;;;1.80;;
68457;SDS011;65384;52.016;5.428;2023-03-14T03:51:54;11.88;;;2.58;;
68457;SDS011;65384;52.016;5.428;2023-03-14T03:54:19;11.05;;;1.90;;
68457;SDS011;65384;52.016;5.428;2023-03-14T03:56:44;11.02;;;2.33;;
68457;SDS011;65384;52.016;5.428;2023-03-14T03:59:10;15.55;;;2.13;;
68457;SDS011;65384;52.016;5.428;2023-03-14T04:01:35;8.57;;;1.92;;
68457;SDS011;65384;52.016;5.428;2023-03-14T04:04:00;7.30;;;1.80;;
68457;SDS011;65384;52.016;5.428;2023-03-14T04:06:26;8.10;;;1.92;;
68457;SDS011;65384;52.016;5.428;2023-03-14T04:08:51;5.13;;;1.67;;
68457;SDS011;65384;52.016;5.428;2023-03-14T04:11:18;12.23;;;1.83;;
68457;SDS011;65384;52.016;5.428;2023-03-14T04:13:44;8.95;;;1.85;;
68457;SDS011;65384;52.016;5.428;2023-03-14T04:16:19;4.45;;;1.45;;
68457;SDS011;65384;52.016;5.428;2023-03-14T04:18:46;7.95;;;1.80;;
68457;SDS011;65384;52.016;5.428;2023-03-14T04:21:12;11.90;;;2.10;;
68457;SDS011;65384;52.016;5.428;2023-03-14T04:23:37;6.82;;;1.27;;
68457;SDS011;65384;52.016;5.428;2023-03-14T04:26:03;9.43;;;1.77;;
68457;SDS011;65384;52.016;5.428;2023-03-14T04:28:28;6.55;;;1.63;;
68457;SDS011;65384;52.016;5.428;2023-03-14T04:30:53;14.35;;;1.80;;
68457;SDS011;65384;52.016;5.428;2023-03-14T04:33:19;11.35;;;1.60;;
68457;SDS011;65384;52.016;5.428;2023-03-14T04:35:45;5.57;;;1.63;;
68457;SDS011;65384;52.016;5.428;2023-03-14T04:38:10;11.45;;;2.28;;
68457;SDS011;65384;52.016;5.428;2023-03-14T04:40:37;11.55;;;1.83;;
68457;SDS011;65384;52.016;5.428;2023-03-14T04:43:03;7.88;;;1.48;;
68457;SDS011;65384;52.016;5.428;2023-03-14T04:45:28;8.32;;;1.65;;
68457;SDS011;65384;52.016;5.428;2023-03-14T04:47:54;8.70;;;1.80;;
68457;SDS011;65384;52.016;5.428;2023-03-14T04:50:19;5.28;;;1.65;;
68457;SDS011;65384;52.016;5.428;2023-03-14T04:52:44;11.82;;;1.67;;
68457;SDS011;65384;52.016;5.428;2023-03-14T04:55:10;7.20;;;1.52;;
68457;SDS011;65384;52.016;5.428;2023-03-14T04:57:35;6.47;;;1.58;;
68457;SDS011;65384;52.016;5.428;2023-03-14T05:00:01;8.63;;;1.40;;
68457;SDS011;65384;52.016;5.428;2023-03-14T05:02:31;4.00;;;1.30;;
68457;SDS011;65384;52.016;5.428;2023-03-14T05:04:56;8.98;;;1.67;;
68457;SDS011;65384;52.016;5.428;2023-03-14T05:07:21;6.13;;;1.30;;
68457;SDS011;65384;52.016;5.428;2023-03-14T05:09:47;5.22;;;1.30;;
68457;SDS011;65384;52.016;5.428;2023-03-14T05:12:12;6.82;;;1.42;;
68457;SDS011;65384;52.016;5.428;2023-03-14T05:14:37;6.68;;;1.70;;
68457;SDS011;65384;52.016;5.428;2023-03-14T05:17:04;5.93;;;1.60;;
68457;SDS011;65384;52.016;5.428;2023-03-14T05:19:29;9.27;;;1.92;;
68457;SDS011;65384;52.016;5.428;2023-03-14T05:21:55;5.25;;;1.38;;
68457;SDS011;65384;52.016;5.428;2023-03-14T05:24:20;5.38;;;1.48;;
68457;SDS011;65384;52.016;5.428;2023-03-14T05:26:45;6.68;;;1.80;;
68457;SDS011;65384;52.016;5.428;2023-03-14T05:29:11;5.05;;;1.90;;
68457;SDS011;65384;52.016;5.428;2023-03-14T05:31:36;7.00;;;1.90;;
68457;SDS011;65384;52.016;5.428;2023-03-14T05:34:01;6.65;;;1.80;;
68457;SDS011;65384;52.016;5.428;2023-03-14T05:36:27;6.40;;;1.77;;
68457;SDS011;65384;52.016;5.428;2023-03-14T05:38:52;6.38;;;1.75;;
68457;SDS011;65384;52.016;5.428;2023-03-14T05:41:18;9.23;;;2.28;;
68457;SDS011;65384;52.016;5.428;2023-03-14T05:43:43;7.40;;;2.30;;
68457;SDS011;65384;52.016;5.428;2023-03-14T05:46:08;11.60;;;2.20;;
68457;SDS011;65384;52.016;5.428;2023-03-14T05:48:34;5.07;;;1.65;;
68457;SDS011;65384;52.016;5.428;2023-03-14T05:50:59;7.13;;;2.13;;
68457;SDS011;65384;52.016;5.428;2023-03-14T05:53:25;12.10;;;2.50;;
68457;SDS011;65384;52.016;5.428;2023-03-14T05:55:53;10.13;;;2.00;;
68457;SDS011;65384;52.016;5.428;2023-03-14T05:58:19;6.13;;;2.60;;
68457;SDS011;65384;52.016;5.428;2023-03-14T06:00:45;6.65;;;2.30;;
68457;SDS011;65384;52.016;5.428;2023-03-14T06:03:10;11.73;;;2.70;;
68457;SDS011;65384;52.016;5.428;2023-03-14T06:05:35;10.30;;;2.50;;
68457;SDS011;65384;52.016;5.428;2023-03-14T06:08:01;9.20;;;2.50;;
68457;SDS011;65384;52.016;5.428;2023-03-14T06:10:26;8.50;;;2.63;;
68457;SDS011;65384;52.016;5.428;2023-03-14T06:12:51;9.82;;;2.83;;
68457;SDS011;65384;52.016;5.428;2023-03-14T06:15:17;9.23;;;2.55;;
68457;SDS011;65384;52.016;5.428;2023-03-14T06:17:42;11.00;;;2.78;;
68457;SDS011;65384;52.016;5.428;2023-03-14T06:20:09;9.20;;;2.45;;
68457;SDS011;65384;52.016;5.428;2023-03-14T06:22:35;10.68;;;2.75;;
68457;SDS011;65384;52.016;5.428;2023-03-14T06:25:00;11.90;;;3.13;;
68457;SDS011;65384;52.016;5.428;2023-03-14T06:27:25;6.90;;;2.75;;
68457;SDS011;65384;52.016;5.428;2023-03-14T06:29:51;10.80;;;2.72;;
68457;SDS011;65384;52.016;5.428;2023-03-14T06:32:16;9.85;;;3.42;;
68457;SDS011;65384;52.016;5.428;2023-03-14T06:34:43;8.85;;;3.67;;
68457;SDS011;65384;52.016;5.428;2023-03-14T06:37:08;13.95;;;2.95;;
68457;SDS011;65384;52.016;5.428;2023-03-14T06:39:33;12.38;;;3.72;;
68457;SDS011;65384;52.016;5.428;2023-03-14T06:41:59;13.73;;;4.25;;
68457;SDS011;65384;52.016;5.428;2023-03-14T06:44:24;11.15;;;4.10;;
68457;SDS011;65384;52.016;5.428;2023-03-14T06:46:49;13.52;;;4.22;;
68457;SDS011;65384;52.016;5.428;2023-03-14T06:49:15;14.10;;;4.72;;
68457;SDS011;65384;52.016;5.428;2023-03-14T06:51:40;8.77;;;2.92;;
68457;SDS011;65384;52.016;5.428;2023-03-14T06:54:06;9.90;;;2.45;;
68457;SDS011;65384;52.016;5.428;2023-03-14T06:56:31;3.33;;;1.45;;
68457;SDS011;65384;52.016;5.428;2023-03-14T06:58:56;2.25;;;1.00;;
68457;SDS011;65384;52.016;5.428;2023-03-14T07:01:29;3.63;;;1.20;;
68457;SDS011;65384;52.016;5.428;2023-03-14T07:03:55;1.55;;;0.70;;
68457;SDS011;65384;52.016;5.428;2023-03-14T07:06:20;1.42;;;0.70;;
68457;SDS011;65384;52.016;5.428;2023-03-14T07:08:46;4.72;;;1.45;;
68457;SDS011;65384;52.016;5.428;2023-03-14T07:11:12;2.28;;;0.50;;
68457;SDS011;65384;52.016;5.428;2023-03-14T07:13:37;0.75;;;0.50;;
68457;SDS011;65384;52.016;5.428;2023-03-14T07:16:03;2.13;;;0.50;;
68457;SDS011;65384;52.016;5.428;2023-03-14T07:18:29;3.90;;;0.55;;
68457;SDS011;65384;52.016;5.428;2023-03-14T07:20:55;0.80;;;0.40;;
68457;SDS011;65384;52.016;5.428;2023-03-14T07:23:20;1.08;;;0.50;;
68457;SDS011;65384;52.016;5.428;2023-03-14T07:25:45;1.27;;;0.60;;
68457;SDS011;65384;52.016;5.428;2023-03-14T07:28:11;1.65;;;0.75;;
68457;SDS011;65384;52.016;5.428;2023-03-14T07:30:36;1.98;;;0.80;;
68457;SDS011;65384;52.016;5.428;2023-03-14T07:33:02;1.75;;;0.80;;
68457;SDS011;65384;52.016;5.428;2023-03-14T07:35:27;3.25;;;1.10;;
68457;SDS011;65384;52.016;5.428;2023-03-14T07:37:53;3.05;;;1.17;;
68457;SDS011;65384;52.016;5.428;2023-03-14T07:40:18;3.47;;;1.30;;
68457;SDS011;65384;52.016;5.428;2023-03-14T07:42:43;2.33;;;1.25;;
68457;SDS011;65384;52.016;5.428;2023-03-14T07:45:09;5.00;;;1.30;;
68457;SDS011;65384;52.016;5.428;2023-03-14T07:47:35;2.85;;;1.40;;
68457;SDS011;65384;52.016;5.428;2023-03-14T07:50:01;2.00;;;1.20;;
68457;SDS011;65384;52.016;5.428;2023-03-14T07:52:27;3.08;;;1.33;;
68457;SDS011;65384;52.016;5.428;2023-03-14T07:54:53;3.75;;;1.30;;
68457;SDS011;65384;52.016;5.428;2023-03-14T07:57:18;3.08;;;1.50;;
68457;SDS011;65384;52.016;5.428;2023-03-14T07:59:43;2.20;;;1.30;;
68457;SDS011;65384;52.016;5.428;2023-03-14T08:02:11;6.38;;;1.30;;
68457;SDS011;65384;52.016;5.428;2023-03-14T08:04:38;4.65;;;1.02;;
68457;SDS011;65384;52.016;5.428;2023-03-14T08:07:04;1.50;;;0.70;;
68457;SDS011;65384;52.016;5.428;2023-03-14T08:09:29;4.25;;;0.93;;
68457;SDS011;65384;52.016;5.428;2023-03-14T08:11:54;1.20;;;0.77;;
68457;SDS011;65384;52.016;5.428;2023-03-14T08:14:20;2.53;;;0.73;;
68457;SDS011;65384;52.016;5.428;2023-03-14T08:16:45;2.22;;;0.82;;
68457;SDS011;65384;52.016;5.428;2023-03-14T08:19:11;3.67;;;0.68;;
68457;SDS011;65384;52.016;5.428;2023-03-14T08:21:36;3.88;;;0.50;;
68457;SDS011;65384;52.016;5.428;2023-03-14T08:24:02;3.47;;;0.63;;
68457;SDS011;65384;52.016;5.428;2023-03-14T08:26:27;3.08;;;0.80;;
68457;SDS011;65384;52.016;5.428;2023-03-14T08:28:52;2.50;;;0.63;;
68457;SDS011;65384;52.016;5.428;2023-03-14T08:31:18;4.13;;;0.60;;
68457;SDS011;65384;52.016;5.428;2023-03-14T08:33:43;3.35;;;0.60;;
68457;SDS011;65384;52.016;5.428;2023-03-14T08:36:09;10.48;;;0.80;;
68457;SDS011;65384;52.016;5.428;2023-03-14T08:38:35;2.65;;;0.60;;
68457;SDS011;65384;52.016;5.428;2023-03-14T08:41:00;4.88;;;0.70;;
68457;SDS011;65384;52.016;5.428;2023-03-14T08:43:27;1.85;;;0.60;;
68457;SDS011;65384;52.016;5.428;2023-03-14T08:45:53;2.90;;;0.50;;
68457;SDS011;65384;52.016;5.428;2023-03-14T08:48:19;3.00;;;0.60;;
68457;SDS011;65384;52.016;5.428;2023-03-14T08:50:44;3.53;;;0.32;;
68457;SDS011;65384;52.016;5.428;2023-03-14T08:53:10;3.55;;;0.40;;
68457;SDS011;65384;52.016;5.428;2023-03-14T08:55:35;2.88;;;0.40;;
68457;SDS011;65384;52.016;5.428;2023-03-14T08:58:01;4.97;;;0.50;;
68457;SDS011;65384;52.016;5.428;2023-03-14T09:00:26;3.03;;;0.65;;
68457;SDS011;65384;52.016;5.428;2023-03-14T09:02:52;3.70;;;0.40;;
68457;SDS011;65384;52.016;5.428;2023-03-14T09:05:17;1.67;;;0.35;;
68457;SDS011;65384;52.016;5.428;2023-03-14T09:07:43;5.15;;;0.40;;
68457;SDS011;65384;52.016;5.428;2023-03-14T09:10:09;4.30;;;0.60;;
68457;SDS011;65384;52.016;5.428;2023-03-14T09:12:35;2.20;;;0.40;;
68457;SDS011;65384;52.016;5.428;2023-03-14T09:15:00;5.82;;;0.55;;
68457;SDS011;65384;52.016;5.428;2023-03-14T09:17:26;6.40;;;0.80;;
68457;SDS011;65384;52.016;5.428;2023-03-14T09:19:51;6.30;;;0.75;;
68457;SDS011;65384;52.016;5.428;2023-03-14T09:22:17;9.93;;;0.90;;
68457;SDS011;65384;52.016;5.428;2023-03-14T09:24:42;5.88;;;0.75;;
68457;SDS011;65384;52.016;5.428;2023-03-14T09:27:07;9.45;;;1.17;;
68457;SDS011;65384;52.016;5.428;2023-03-14T09:29:33;5.03;;;0.80;;
68457;SDS011;65384;52.016;5.428;2023-03-14T09:31:58;3.20;;;0.70;;
68457;SDS011;65384;52.016;5.428;2023-03-14T09:34:24;8.15;;;0.80;;
68457;SDS011;65384;52.016;5.428;2023-03-14T09:36:49;6.88;;;1.02;;
68457;SDS011;65384;52.016;5.428;2023-03-14T09:39:15;4.72;;;0.80;;
68457;SDS011;65384;52.016;5.428;2023-03-14T09:41:43;5.50;;;0.90;;
68457;SDS011;65384;52.016;5.428;2023-03-14T09:44:31;11.43;;;0.93;;
68457;SDS011;65384;52.016;5.428;2023-03-14T09:46:57;6.43;;;1.15;;
68457;SDS011;65384;52.016;5.428;2023-03-14T09:49:29;7.07;;;0.80;;
68457;SDS011;65384;52.016;5.428;2023-03-14T09:51:57;5.93;;;0.90;;
68457;SDS011;65384;52.016;5.428;2023-03-14T09:54:38;9.07;;;1.00;;
68457;SDS011;65384;52.016;5.428;2023-03-14T09:57:14;9.32;;;1.58;;
68457;SDS011;65384;52.016;5.428;2023-03-14T09:59:42;11.57;;;1.30;;
68457;SDS011;65384;52.016;5.428;2023-03-14T10:02:11;10.48;;;1.00;;
68457;SDS011;65384;52.016;5.428;2023-03-14T10:04:40;6.35;;;1.10;;
68457;SDS011;65384;52.016;5.428;2023-03-14T10:07:13;12.68;;;1.13;;
68457;SDS011;65384;52.016;5.428;2023-03-14T10:09:42;9.07;;;1.00;;
68457;SDS011;65384;52.016;5.428;2023-03-14T10:12:08;10.27;;;1.30;;
68457;SDS011;65384;52.016;5.428;2023-03-14T10:14:35;13.50;;;1.15;;
68457;SDS011;65384;52.016;5.428;2023-03-14T10:17:06;16.25;;;1.50;;
68457;SDS011;65384;52.016;5.428;2023-03-14T10:22:00;11.43;;;1.42;;
68457;SDS011;65384;52.016;5.428;2023-03-14T10:24:29;13.85;;;1.20;;
68457;SDS011;65384;52.016;5.428;2023-03-14T10:27:00;14.75;;;1.48;;
68457;SDS011;65384;52.016;5.428;2023-03-14T10:29:29;12.77;;;1.50;;
68457;SDS011;65384;52.016;5.428;2023-03-14T10:34:33;10.90;;;1.45;;
68457;SDS011;65384;52.016;5.428;2023-03-14T10:37:21;14.50;;;1.40;;
68457;SDS011;65384;52.016;5.428;2023-03-14T10:39:47;11.13;;;1.30;;
68457;SDS011;65384;52.016;5.428;2023-03-14T10:44:41;8.52;;;1.23;;
68457;SDS011;65384;52.016;5.428;2023-03-14T10:47:12;16.20;;;1.67;;
68457;SDS011;65384;52.016;5.428;2023-03-14T10:49:47;16.65;;;1.90;;
68457;SDS011;65384;52.016;5.428;2023-03-14T10:54:47;13.00;;;1.45;;
68457;SDS011;65384;52.016;5.428;2023-03-14T10:57:20;14.13;;;1.83;;
68457;SDS011;65384;52.016;5.428;2023-03-14T10:59:46;9.07;;;1.35;;
68457;SDS011;65384;52.016;5.428;2023-03-14T11:02:27;19.85;;;1.48;;
68457;SDS011;65384;52.016;5.428;2023-03-14T11:05:14;11.77;;;1.45;;
68457;SDS011;65384;52.016;5.428;2023-03-14T11:07:45;17.38;;;1.77;;
68457;SDS011;65384;52.016;5.428;2023-03-14T11:21:23;14.60;;;1.58;;
68457;SDS011;65384;52.016;5.428;2023-03-14T11:24:23;12.68;;;1.75;;
68457;SDS011;65384;52.016;5.428;2023-03-14T11:26:54;17.75;;;1.98;;
68457;SDS011;65384;52.016;5.428;2023-03-14T11:32:12;21.00;;;2.20;;
68457;SDS011;65384;52.016;5.428;2023-03-14T11:34:59;12.73;;;1.52;;
68457;SDS011;65384;52.016;5.428;2023-03-14T11:37:25;15.55;;;1.60;;
68457;SDS011;65384;52.016;5.428;2023-03-14T11:39:59;13.48;;;1.52;;
68457;SDS011;65384;52.016;5.428;2023-03-14T11:42:27;12.68;;;2.05;;
68457;SDS011;65384;52.016;5.428;2023-03-14T11:44:54;14.10;;;1.58;;
68457;SDS011;65384;52.016;5.428;2023-03-14T11:47:22;9.80;;;1.20;;
68457;SDS011;65384;52.016;5.428;2023-03-14T11:54:56;9.98;;;1.35;;
68457;SDS011;65384;52.016;5.428;2023-03-14T11:57:25;12.95;;;1.90;;
68457;SDS011;65384;52.016;5.428;2023-03-14T12:05:48;11.95;;;1.20;;
68457;SDS011;65384;52.016;5.428;2023-03-14T12:11:01;11.45;;;1.30;;
68457;SDS011;65384;52.016;5.428;2023-03-14T12:13:29;7.13;;;1.00;;
68457;SDS011;65384;52.016;5.428;2023-03-14T12:15:58;8.75;;;1.13;;
68457;SDS011;65384;52.016;5.428;2023-03-14T12:18:32;10.38;;;1.20;;
68457;SDS011;65384;52.016;5.428;2023-03-14T12:21:00;6.07;;;1.13;;
68457;SDS011;65384;52.016;5.428;2023-03-14T12:23:27;5.97;;;1.08;;
68457;SDS011;65384;52.016;5.428;2023-03-14T12:26:06;5.50;;;0.95;;
68457;SDS011;65384;52.016;5.428;2023-03-14T12:28:33;5.45;;;0.95;;
68457;SDS011;65384;52.016;5.428;2023-03-14T12:31:30;7.53;;;1.00;;
68457;SDS011;65384;52.016;5.428;2023-03-14T12:39:49;5.63;;;1.10;;
68457;SDS011;65384;52.016;5.428;2023-03-14T12:42:38;5.75;;;0.90;;
68457;SDS011;65384;52.016;5.428;2023-03-14T12:50:28;4.95;;;1.02;;
68457;SDS011;65384;52.016;5.428;2023-03-14T12:53:10;8.48;;;1.20;;
68457;SDS011;65384;52.016;5.428;2023-03-14T13:01:15;8.45;;;1.13;;
68457;SDS011;65384;52.016;5.428;2023-03-14T13:03:47;7.13;;;0.90;;
68457;SDS011;65384;52.016;5.428;2023-03-14T13:06:44;8.50;;;1.10;;
68457;SDS011;65384;52.016;5.428;2023-03-14T13:12:11;5.78;;;0.90;;
68457;SDS011;65384;52.016;5.428;2023-03-14T13:14:48;5.30;;;0.85;;
68457;SDS011;65384;52.016;5.428;2023-03-14T13:17:16;2.53;;;0.82;;
68457;SDS011;65384;52.016;5.428;2023-03-14T13:19:52;6.13;;;0.80;;
68457;SDS011;65384;52.016;5.428;2023-03-14T13:22:24;7.20;;;1.10;;
68457;SDS011;65384;52.016;5.428;2023-03-14T13:24:58;3.85;;;0.90;;
68457;SDS011;65384;52.016;5.428;2023-03-14T13:27:29;6.18;;;0.93;;
68457;SDS011;65384;52.016;5.428;2023-03-14T13:29:55;6.72;;;0.90;;
68457;SDS011;65384;52.016;5.428;2023-03-14T13:32:22;1.73;;;0.60;;
68457;SDS011;65384;52.016;5.428;2023-03-14T13:34:51;5.55;;;0.68;;
68457;SDS011;65384;52.016;5.428;2023-03-14T13:37:21;4.40;;;0.60;;
68457;SDS011;65384;52.016;5.428;2023-03-14T13:39:55;8.10;;;1.00;;
68457;SDS011;65384;52.016;5.428;2023-03-14T13:42:24;6.75;;;0.70;;
68457;SDS011;65384;52.016;5.428;2023-03-14T13:44:54;7.40;;;1.73;;
68457;SDS011;65384;52.016;5.428;2023-03-14T13:47:21;5.72;;;0.77;;
68457;SDS011;65384;52.016;5.428;2023-03-14T13:49:49;4.88;;;0.75;;
68457;SDS011;65384;52.016;5.428;2023-03-14T13:52:28;4.88;;;0.75;;
68457;SDS011;65384;52.016;5.428;2023-03-14T13:54:56;5.55;;;0.60;;
68457;SDS011;65384;52.016;5.428;2023-03-14T13:57:22;5.00;;;1.00;;
68457;SDS011;65384;52.016;5.428;2023-03-14T14:00:01;2.25;;;0.70;;
68457;SDS011;65384;52.016;5.428;2023-03-14T14:02:31;6.55;;;0.75;;
68457;SDS011;65384;52.016;5.428;2023-03-14T14:04:57;7.05;;;1.23;;
68457;SDS011;65384;52.016;5.428;2023-03-14T14:07:23;6.63;;;0.88;;
68457;SDS011;65384;52.016;5.428;2023-03-14T14:09:49;4.10;;;1.00;;
68457;SDS011;65384;52.016;5.428;2023-03-14T14:12:39;5.35;;;0.70;;
68457;SDS011;65384;52.016;5.428;2023-03-14T14:15:12;2.35;;;0.60;;
68457;SDS011;65384;52.016;5.428;2023-03-14T14:17:41;6.05;;;0.90;;
68457;SDS011;65384;52.016;5.428;2023-03-14T14:20:43;4.68;;;0.90;;
68457;SDS011;65384;52.016;5.428;2023-03-14T14:23:03;11.13;;;1.42;;
68457;SDS011;65384;52.016;5.428;2023-03-14T14:25:29;5.30;;;0.85;;
68457;SDS011;65384;52.016;5.428;2023-03-14T14:27:55;8.18;;;1.00;;
68457;SDS011;65384;52.016;5.428;2023-03-14T14:32:47;8.98;;;1.00;;
68457;SDS011;65384;52.016;5.428;2023-03-14T14:35:23;5.68;;;0.90;;
68457;SDS011;65384;52.016;5.428;2023-03-14T14:37:50;7.35;;;1.17;;
68457;SDS011;65384;52.016;5.428;2023-03-14T14:40:18;5.10;;;0.70;;
68457;SDS011;65384;52.016;5.428;2023-03-14T14:42:45;4.53;;;0.80;;
68457;SDS011;65384;52.016;5.428;2023-03-14T14:45:13;6.88;;;1.10;;
68457;SDS011;65384;52.016;5.428;2023-03-14T14:47:53;8.23;;;0.80;;
68457;SDS011;65384;52.016;5.428;2023-03-14T14:53:18;6.20;;;0.85;;
68457;SDS011;65384;52.016;5.428;2023-03-14T14:56:21;5.43;;;0.82;;
68457;SDS011;65384;52.016;5.428;2023-03-14T14:58:55;5.95;;;0.70;;
68457;SDS011;65384;52.016;5.428;2023-03-14T15:01:23;5.13;;;0.70;;
68457;SDS011;65384;52.016;5.428;2023-03-14T15:03:52;4.85;;;0.68;;
68457;SDS011;65384;52.016;5.428;2023-03-14T15:06:18;4.40;;;0.65;;
68457;SDS011;65384;52.016;5.428;2023-03-14T15:08:44;6.50;;;0.90;;
68457;SDS011;65384;52.016;5.428;2023-03-14T15:11:18;4.72;;;0.70;;
68457;SDS011;65384;52.016;5.428;2023-03-14T15:13:45;6.90;;;0.93;;
68457;SDS011;65384;52.016;5.428;2023-03-14T15:16:11;5.20;;;0.80;;
68457;SDS011;65384;52.016;5.428;2023-03-14T15:18:37;4.05;;;0.82;;
68457;SDS011;65384;52.016;5.428;2023-03-14T15:21:02;2.35;;;0.70;;
68457;SDS011;65384;52.016;5.428;2023-03-14T15:23:28;7.50;;;0.90;;
68457;SDS011;65384;52.016;5.428;2023-03-14T15:25:53;6.78;;;0.80;;
68457;SDS011;65384;52.016;5.428;2023-03-14T15:28:20;3.40;;;0.70;;
68457;SDS011;65384;52.016;5.428;2023-03-14T15:30:47;6.35;;;1.05;;
68457;SDS011;65384;52.016;5.428;2023-03-14T15:33:14;5.18;;;0.70;;
68457;SDS011;65384;52.016;5.428;2023-03-14T15:35:39;5.93;;;0.90;;
68457;SDS011;65384;52.016;5.428;2023-03-14T15:38:08;6.55;;;1.17;;
68457;SDS011;65384;52.016;5.428;2023-03-14T15:40:35;5.15;;;1.20;;
68457;SDS011;65384;52.016;5.428;2023-03-14T15:43:00;4.97;;;0.77;;
68457;SDS011;65384;52.016;5.428;2023-03-14T15:45:25;6.55;;;0.85;;
68457;SDS011;65384;52.016;5.428;2023-03-14T15:47:51;7.03;;;0.85;;
68457;SDS011;65384;52.016;5.428;2023-03-14T15:50:16;6.28;;;0.80;;
68457;SDS011;65384;52.016;5.428;2023-03-14T15:52:44;6.13;;;1.20;;
68457;SDS011;65384;52.016;5.428;2023-03-14T15:55:09;5.40;;;0.77;;
68457;SDS011;65384;52.016;5.428;2023-03-14T15:57:35;5.70;;;0.90;;